Time;durP1;ratioP1;P1;durP2;ratioP2;P2;SDS_P1;SDS_P2;PMS_P1;PMS_P2;Temp;Humidity;BMP_temperature;BMP_pressure;BME280_temperature;BME280_humidity;BME280_pressure;Samples;Min_cycle;Max_cycle;Signal;HPM_P1;HPM_P2
2023/09/21 05:17:38;;;;;;;;;;;;;;;;;;3374141;26;20015;-44
2023/09/21 05:20:05;;;;;;;;;;;;;;;;;;5052722;28;20008;-45
2023/09/21 05:22:32;;;;;;;;;;;;;;;;;;5050065;28;19909;-46
2023/09/21 05:24:59;;;;;;;;;;;;;;;;;;5052349;28;19916;-44
2023/09/21 05:27:24;;;;;;;;;;;;;;;;;;5051018;28;19909;-46
2023/09/21 05:29:50;;;;;;;;;;;;;;;;;;5051188;28;19909;-43
2023/09/21 05:32:16;;;;;;;;;;;;;;;;;;5049112;28;19939;-45
2023/09/21 05:34:42;;;;;;;;;;;;;;;;;;5051746;28;20463;-45
2023/09/21 05:37:08;;;;;;;;;;;;;;;;;;5051986;28;20349;-43
2023/09/21 05:39:34;;;;;;;;;;;;;;;;;;5050076;28;19917;-44
2023/09/21 05:42:00;;;;;;;;;;;;;;;;;;5052171;28;19913;-43
2023/09/21 05:44:26;;;;;;;;;;;;;;;;;;5052284;28;19909;-43
2023/09/21 05:46:52;;;;;;;;;;;;;;;;;;5049386;28;19909;-45
2023/09/21 05:49:22;;;;;;;;;;;;;;;;;;5051996;28;20047;-43
2023/09/21 05:51:48;;;;;;;;;;;;;;;;;;5030982;28;19939;-44
2023/09/21 05:54:16;;;;;;;;;;;;;;;;;;5042795;28;20350;-44
2023/09/21 05:56:43;;;;;;;;;;;;;;;;;;5050877;28;19966;-43
2023/09/21 05:59:09;;;;;;;;;;;;;;;;;;5048157;28;20341;-44
2023/09/21 06:01:35;;;;;;;;;;;;;;;;;;5050106;28;19916;-46
2023/09/21 06:04:02;;;;;;;;;;;;;;;;;;5050283;28;19919;-43
2023/09/21 06:06:31;;;;;;;;;;;;;;;;;;5050189;28;20398;-43
2023/09/21 06:08:57;;;;;;;;;;;;;;;;;;5050804;28;19913;-46
2023/09/21 06:11:23;;;;;;;;;;;;;;;;;;5049804;28;20450;-43
2023/09/21 06:13:49;;;;;;;;;;;;;;;;;;5050552;28;19919;-45
2023/09/21 06:16:15;;;;;;;;;;;;;;;;;;5049343;28;20406;-43
2023/09/21 06:18:42;;;;;;;;;;;;;;;;;;5049755;28;20268;-47
2023/09/21 06:21:09;;;;;;;;;;;;;;;;;;5050462;28;19909;-50
2023/09/21 06:23:35;;;;;;;;;;;;;;;;;;5050194;28;20342;-46
2023/09/21 06:26:01;;;;;;;;;;;;;;;;;;5050144;28;19909;-47
2023/09/21 06:28:28;;;;;;;;;;;;;;;;;;5049888;28;19917;-46
2023/09/21 06:30:54;;;;;;;;;;;;;;;;;;5049794;28;20567;-45
2023/09/21 06:33:24;;;;;;;;;;;;;;;;;;5049788;28;19913;-45
2023/09/21 06:35:49;;;;;;;;;;;;;;;;;;5050192;28;19905;-44
2023/09/21 06:38:15;;;;;;;;;;;;;;;;;;5049660;28;19920;-45
2023/09/21 06:40:41;;;;;;;;;;;;;;;;;;5033039;28;19920;-46
2023/09/21 06:43:07;;;;;;;;;;;;;;;;;;5029765;28;19963;-46
2023/09/21 06:45:34;;;;;;;;;;;;;;;;;;5029863;28;19952;-46
2023/09/21 06:48:01;;;;;;;;;;;;;;;;;;5029954;28;19916;-46
2023/09/21 06:50:27;;;;;;;;;;;;;;;;;;5030200;28;19948;-46
2023/09/21 06:52:53;;;;;;;;;;;;;;;;;;5030038;28;19913;-46
2023/09/21 06:55:19;;;;;;;;;;;;;;;;;;5047447;28;19912;-45
2023/09/21 06:57:45;;;;;;;;;;;;;;;;;;5048921;28;20417;-45
2023/09/21 07:00:11;;;;;;;;;;;;;;;;;;5049251;28;19913;-46
2023/09/21 07:02:37;;;;;;;;;;;;;;;;;;5049283;28;20386;-47
2023/09/21 07:05:03;;;;;;;;;;;;;;;;;;5049795;28;19908;-46
2023/09/21 07:07:28;;;;;;;;;;;;;;;;;;5049080;28;19913;-46
2023/09/21 07:09:54;;;;;;;;;;;;;;;;;;5049592;28;19995;-47
2023/09/21 07:12:22;;;;;;;;;;;;;;;;;;5049254;28;19912;-45
2023/09/21 07:14:49;;;;;;;;;;;;;;;;;;5048690;28;20470;-46
2023/09/21 07:17:15;;;;;;;;;;;;;;;;;;5049541;28;19919;-45
2023/09/21 07:19:41;;;;;;;;;;;;;;;;;;5049240;28;20442;-49
2023/09/21 07:22:07;;;;;;;;;;;;;;;;;;5049540;28;20004;-47
2023/09/21 07:24:33;;;;;;;;;;;;;;;;;;5048541;28;19935;-46
2023/09/21 07:27:00;;;;;;;;;;;;;;;;;;5049534;28;19966;-49
2023/09/21 07:29:26;;;;;;;;;;;;;;;;;;5050393;28;20321;-48
2023/09/21 07:31:52;;;;;;;;;;;;;;;;;;5048554;28;20028;-46
2023/09/21 07:34:18;;;;;;;;;;;;;;;;;;5048617;28;19952;-50
2023/09/21 07:36:46;;;;;;;;;;;;;;;;;;5048809;28;19959;-47
2023/09/21 07:39:12;;;;;;;;;;;;;;;;;;5049097;28;19913;-46
2023/09/21 07:41:40;;;;;;;;;;;;;;;;;;5049056;28;19978;-49
2023/09/21 07:44:08;;;;;;;;;;;;;;;;;;5048755;28;19919;-47
2023/09/21 07:46:34;;;;;;;;;;;;;;;;;;5049194;28;19909;-45
2023/09/21 07:49:00;;;;;;;;;;;;;;;;;;5047511;28;19905;-46
2023/09/21 07:51:26;;;;;;;;;;;;;;;;;;5049254;28;20529;-47
2023/09/21 07:53:52;;;;;;;;;;;;;;;;;;5049120;28;19909;-48
2023/09/21 07:56:18;;;;;;;;;;;;;;;;;;5048625;28;19912;-45
2023/09/21 07:58:44;;;;;;;;;;;;;;;;;;5048766;28;19912;-49
2023/09/21 08:01:10;;;;;;;;;;;;;;;;;;5048810;28;20378;-48
2023/09/21 08:03:37;;;;;;;;;;;;;;;;;;5048809;28;20014;-46
2023/09/21 08:06:03;;;;;;;;;;;;;;;;;;5049214;28;19916;-51
2023/09/21 08:08:29;;;;;;;;;;;;;;;;;;5049051;28;20003;-46
2023/09/21 08:10:56;;;;;;;;;;;;;;;;;;5048848;28;20629;-46
2023/09/21 08:13:22;;;;;;;;;;;;;;;;;;5046774;28;20310;-49
2023/09/21 08:15:48;;;;;;;;;;;;;;;;;;5048703;28;19915;-50
2023/09/21 08:18:14;;;;;;;;;;;;;;;;;;5050583;28;19983;-47
2023/09/21 08:20:40;;;;;;;;;;;;;;;;;;5052840;28;19913;-46
2023/09/21 08:23:06;;;;;;;;;;;;;;;;;;5052544;28;19913;-46
2023/09/21 08:25:33;;;;;;;;;;;;;;;;;;5051944;28;20419;-48
2023/09/21 08:27:59;;;;;;;;;;;;;;;;;;5052980;28;19917;-46
2023/09/21 08:30:25;;;;;;;;;;;;;;;;;;5053799;28;19916;-45
2023/09/21 08:32:51;;;;;;;;;;;;;;;;;;5053760;28;20280;-45
2023/09/21 08:35:17;;;;;;;;;;;;;;;;;;5053304;28;19915;-47
2023/09/21 08:37:43;;;;;;;;;;;;;;;;;;5053089;28;20295;-49
2023/09/21 08:40:09;;;;;;;;;;;;;;;;;;5053396;28;20395;-49
2023/09/21 08:42:35;;;;;;;;;;;;;;;;;;5053569;28;19909;-47
2023/09/21 08:45:02;;;;;;;;;;;;;;;;;;5053323;28;19954;-49
2023/09/21 08:47:28;;;;;;;;;;;;;;;;;;5053652;28;19908;-50
2023/09/21 08:49:54;;;;;;;;;;;;;;;;;;5052608;28;20334;-47
2023/09/21 08:52:20;;;;;;;;;;;;;;;;;;5053148;28;19909;-45
2023/09/21 08:54:46;;;;;;;;;;;;;;;;;;5052989;28;19909;-49
2023/09/21 08:57:13;;;;;;;;;;;;;;;;;;5051969;28;20319;-46
2023/09/21 08:59:39;;;;;;;;;;;;;;;;;;5051156;28;20505;-46
2023/09/21 09:02:05;;;;;;;;;;;;;;;;;;5050304;28;20023;-46
2023/09/21 09:04:31;;;;;;;;;;;;;;;;;;5051450;28;19912;-47
2023/09/21 09:06:57;;;;;;;;;;;;;;;;;;5051206;28;20306;-49
2023/09/21 09:09:24;;;;;;;;;;;;;;;;;;5050732;28;20330;-48
2023/09/21 09:11:50;;;;;;;;;;;;;;;;;;5053134;28;19924;-46
2023/09/21 09:14:16;;;;;;;;;;;;;;;;;;5052834;28;19912;-46
2023/09/21 09:16:43;;;;;;;;;;;;;;;;;;5052955;28;19971;-49
2023/09/21 09:19:11;;;;;;;;;;;;;;;;;;5052511;28;19970;-49
2023/09/21 09:21:37;;;;;;;;;;;;;;;;;;5052933;28;19909;-49
2023/09/21 09:24:04;;;;;;;;;;;;;;;;;;5050857;28;19920;-48
2023/09/21 09:26:30;;;;;;;;;;;;;;;;;;5051061;28;19909;-45
2023/09/21 09:28:56;;;;;;;;;;;;;;;;;;5050690;28;19909;-47
2023/09/21 09:31:21;;;;;;;;;;;;;;;;;;5051348;28;19909;-46
2023/09/21 09:33:47;;;;;;;;;;;;;;;;;;5051538;28;19988;-46
2023/09/21 09:36:13;;;;;;;;;;;;;;;;;;5051109;28;19908;-47
2023/09/21 09:38:39;;;;;;;;;;;;;;;;;;5050706;28;19952;-48
2023/09/21 09:41:06;;;;;;;;;;;;;;;;;;5051207;28;20418;-46
2023/09/21 09:43:32;;;;;;;;;;;;;;;;;;5051035;28;20470;-46
2023/09/21 09:45:58;;;;;;;;;;;;;;;;;;5051273;28;19917;-47
2023/09/21 09:48:26;;;;;;;;;;;;;;;;;;5051124;28;19911;-47
2023/09/21 09:50:54;;;;;;;;;;;;;;;;;;5050678;28;19916;-47
2023/09/21 09:53:23;;;;;;;;;;;;;;;;;;5050975;28;19916;-46
2023/09/21 09:55:49;;;;;;;;;;;;;;;;;;5051056;28;19989;-46
2023/09/21 09:58:16;;;;;;;;;;;;;;;;;;5050710;28;19919;-47
2023/09/21 10:00:44;;;;;;;;;;;;;;;;;;5050687;28;19908;-49
2023/09/21 10:03:10;;;;;;;;;;;;;;;;;;5050722;28;19935;-48
2023/09/21 10:05:36;;;;;;;;;;;;;;;;;;5050343;28;20342;-46
2023/09/21 10:08:03;;;;;;;;;;;;;;;;;;5050420;28;19996;-50
2023/09/21 10:10:30;;;;;;;;;;;;;;;;;;5050765;28;20494;-50
2023/09/21 10:12:56;;;;;;;;;;;;;;;;;;5051277;28;19921;-48
2023/09/21 10:15:23;;;;;;;;;;;;;;;;;;5050577;28;19909;-50
2023/09/21 10:17:50;;;;;;;;;;;;;;;;;;5050120;28;19916;-48
2023/09/21 10:20:16;;;;;;;;;;;;;;;;;;5050649;28;20325;-47
2023/09/21 10:22:46;;;;;;;;;;;;;;;;;;5050344;28;19935;-50
2023/09/21 10:25:12;;;;;;;;;;;;;;;;;;5050438;28;19912;-46
2023/09/21 10:27:38;;;;;;;;;;;;;;;;;;5050111;28;19912;-46
2023/09/21 10:30:06;;;;;;;;;;;;;;;;;;5049963;28;19908;-46
2023/09/21 10:32:32;;;;;;;;;;;;;;;;;;5050126;28;19908;-47
2023/09/21 10:34:59;;;;;;;;;;;;;;;;;;5050164;28;20339;-48
2023/09/21 10:37:29;;;;;;;;;;;;;;;;;;5050043;28;19959;-46
2023/09/21 10:39:57;;;;;;;;;;;;;;;;;;5050386;28;19913;-46
2023/09/21 10:42:23;;;;;;;;;;;;;;;;;;5049123;28;20379;-48
2023/09/21 10:44:49;;;;;;;;;;;;;;;;;;5049781;28;19963;-46
2023/09/21 10:47:15;;;;;;;;;;;;;;;;;;5049874;28;19950;-45
2023/09/21 10:49:41;;;;;;;;;;;;;;;;;;5049787;28;20425;-46
2023/09/21 10:52:07;;;;;;;;;;;;;;;;;;5049809;28;19996;-47
2023/09/21 10:54:33;;;;;;;;;;;;;;;;;;5049808;28;19948;-45
2023/09/21 10:56:58;;;;;;;;;;;;;;;;;;5050021;28;19999;-46
2023/09/21 10:59:24;;;;;;;;;;;;;;;;;;5049566;28;20020;-45
2023/09/21 11:01:51;;;;;;;;;;;;;;;;;;5049601;28;20016;-48
2023/09/21 11:04:17;;;;;;;;;;;;;;;;;;5049659;28;19935;-46
2023/09/21 11:06:43;;;;;;;;;;;;;;;;;;5049308;28;19908;-49
2023/09/21 11:09:09;;;;;;;;;;;;;;;;;;5049646;28;19909;-50
2023/09/21 11:11:35;;;;;;;;;;;;;;;;;;5049488;28;19958;-47
2023/09/21 11:14:05;;;;;;;;;;;;;;;;;;5049467;28;19916;-47
2023/09/21 11:16:31;;;;;;;;;;;;;;;;;;5046571;28;19908;-46
2023/09/21 11:18:57;;;;;;;;;;;;;;;;;;5048010;28;20019;-46
2023/09/21 11:21:22;;;;;;;;;;;;;;;;;;5046569;28;19916;-48
2023/09/21 11:23:49;;;;;;;;;;;;;;;;;;5047538;28;19912;-48
2023/09/21 11:26:15;;;;;;;;;;;;;;;;;;5047499;28;19920;-46
2023/09/21 11:28:42;;;;;;;;;;;;;;;;;;5047414;28;19909;-48
2023/09/21 11:31:08;;;;;;;;;;;;;;;;;;5047332;28;19909;-48
2023/09/21 11:33:34;;;;;;;;;;;;;;;;;;5048242;28;20334;-46
2023/09/21 11:36:00;;;;;;;;;;;;;;;;;;5047441;28;19909;-51
2023/09/21 11:38:29;;;;;;;;;;;;;;;;;;5047320;28;19916;-49
2023/09/21 11:40:55;;;;;;;;;;;;;;;;;;5047462;28;20311;-46
2023/09/21 11:43:22;;;;;;;;;;;;;;;;;;5047515;28;19909;-49
2023/09/21 11:45:47;;;;;;;;;;;;;;;;;;5047247;28;20011;-47
2023/09/21 11:48:13;;;;;;;;;;;;;;;;;;5047601;28;19951;-48
2023/09/21 11:50:41;;;;;;;;;;;;;;;;;;5047423;28;19908;-48
2023/09/21 11:53:07;;;;;;;;;;;;;;;;;;5050247;28;19913;-47
2023/09/21 11:55:33;;;;;;;;;;;;;;;;;;5051982;28;19909;-48
2023/09/21 11:58:00;;;;;;;;;;;;;;;;;;5051212;28;19966;-51
2023/09/21 12:00:27;;;;;;;;;;;;;;;;;;5051327;28;19909;-49
2023/09/21 12:02:53;;;;;;;;;;;;;;;;;;5051177;28;19909;-50
2023/09/21 12:05:20;;;;;;;;;;;;;;;;;;5051135;28;20078;-50
2023/09/21 12:07:46;;;;;;;;;;;;;;;;;;5051070;28;19909;-49
2023/09/21 12:10:15;;;;;;;;;;;;;;;;;;5051545;28;20383;-47
2023/09/21 12:12:42;;;;;;;;;;;;;;;;;;5051127;28;19908;-49
2023/09/21 12:15:10;;;;;;;;;;;;;;;;;;5051746;28;20023;-49
2023/09/21 12:17:36;;;;;;;;;;;;;;;;;;5050851;28;19963;-46
2023/09/21 12:20:06;;;;;;;;;;;;;;;;;;5051319;28;19952;-50
2023/09/21 12:22:36;;;;;;;;;;;;;;;;;;5050737;28;20372;-50
2023/09/21 12:25:06;;;;;;;;;;;;;;;;;;5050895;28;19909;-50
2023/09/21 12:27:32;;;;;;;;;;;;;;;;;;5050373;28;19909;-48
2023/09/21 12:29:58;;;;;;;;;;;;;;;;;;5050885;28;20334;-47
2023/09/21 12:32:24;;;;;;;;;;;;;;;;;;5050600;28;20012;-46
2023/09/21 12:34:51;;;;;;;;;;;;;;;;;;5050735;28;19909;-47
2023/09/21 12:37:18;;;;;;;;;;;;;;;;;;5050445;28;20307;-48
2023/09/21 12:39:44;;;;;;;;;;;;;;;;;;5050343;28;19913;-47
2023/09/21 12:42:11;;;;;;;;;;;;;;;;;;5051022;28;19934;-47
2023/09/21 12:44:37;;;;;;;;;;;;;;;;;;5051213;28;19916;-47
2023/09/21 12:47:04;;;;;;;;;;;;;;;;;;5050291;28;19909;-48
2023/09/21 12:49:30;;;;;;;;;;;;;;;;;;5050509;28;19908;-47
2023/09/21 12:51:56;;;;;;;;;;;;;;;;;;5050108;28;19908;-48
2023/09/21 12:54:21;;;;;;;;;;;;;;;;;;5050528;28;20441;-48
2023/09/21 12:56:50;;;;;;;;;;;;;;;;;;5049971;28;19909;-47
2023/09/21 12:59:16;;;;;;;;;;;;;;;;;;5050066;28;20413;-46
2023/09/21 13:01:42;;;;;;;;;;;;;;;;;;5050073;28;19971;-48
2023/09/21 13:04:07;;;;;;;;;;;;;;;;;;5049901;28;19939;-47
2023/09/21 13:06:34;;;;;;;;;;;;;;;;;;5050004;28;20436;-47
2023/09/21 13:09:01;;;;;;;;;;;;;;;;;;5048598;28;19916;-50
2023/09/21 13:11:27;;;;;;;;;;;;;;;;;;5050082;28;19909;-46
2023/09/21 13:13:52;;;;;;;;;;;;;;;;;;5049157;28;19909;-49
2023/09/21 13:16:18;;;;;;;;;;;;;;;;;;5050703;28;19962;-48
2023/09/21 13:18:45;;;;;;;;;;;;;;;;;;5049256;28;20012;-47
2023/09/21 13:21:11;;;;;;;;;;;;;;;;;;5049895;28;19995;-46
2023/09/21 13:23:37;;;;;;;;;;;;;;;;;;5049800;28;19948;-49
2023/09/21 13:26:03;;;;;;;;;;;;;;;;;;5049133;28;19913;-48
2023/09/21 13:28:29;;;;;;;;;;;;;;;;;;5049312;28;19965;-46
2023/09/21 13:30:55;;;;;;;;;;;;;;;;;;5049431;28;19916;-47
2023/09/21 13:33:21;;;;;;;;;;;;;;;;;;5049046;28;20272;-50
2023/09/21 13:35:47;;;;;;;;;;;;;;;;;;5050197;28;19908;-48
2023/09/21 13:38:14;;;;;;;;;;;;;;;;;;5049522;28;19912;-47
2023/09/21 13:40:40;;;;;;;;;;;;;;;;;;5049095;28;20410;-48
2023/09/21 13:43:05;;;;;;;;;;;;;;;;;;5049250;28;20360;-47
2023/09/21 13:45:33;;;;;;;;;;;;;;;;;;5049280;28;19955;-46
2023/09/21 13:47:59;;;;;;;;;;;;;;;;;;5049252;28;19952;-51
2023/09/21 13:50:25;;;;;;;;;;;;;;;;;;5046649;28;20022;-50
2023/09/21 13:52:51;;;;;;;;;;;;;;;;;;5046563;28;20391;-49
2023/09/21 13:55:16;;;;;;;;;;;;;;;;;;5048627;28;20113;-49
2023/09/21 13:57:42;;;;;;;;;;;;;;;;;;5047299;28;20031;-51
2023/09/21 14:00:09;;;;;;;;;;;;;;;;;;5047573;28;19909;-48
2023/09/21 14:02:35;;;;;;;;;;;;;;;;;;5047002;28;19966;-51
2023/09/21 14:05:01;;;;;;;;;;;;;;;;;;5040392;28;20329;-53
2023/09/21 14:07:27;;;;;;;;;;;;;;;;;;5047556;28;19913;-50
2023/09/21 14:09:53;;;;;;;;;;;;;;;;;;5048028;28;20367;-53
2023/09/21 14:12:19;;;;;;;;;;;;;;;;;;5048083;28;19909;-49
2023/09/21 14:14:47;;;;;;;;;;;;;;;;;;5041085;28;20359;-52
2023/09/21 14:17:13;;;;;;;;;;;;;;;;;;5027343;28;20376;-48
2023/09/21 14:19:39;;;;;;;;;;;;;;;;;;5027186;28;19917;-49
2023/09/21 14:22:05;;;;;;;;;;;;;;;;;;5028024;28;20375;-53
2023/09/21 14:24:33;;;;;;;;;;;;;;;;;;5027119;28;20310;-52
2023/09/21 14:26:59;;;;;;;;;;;;;;;;;;5027556;28;20442;-50
2023/09/21 14:29:26;;;;;;;;;;;;;;;;;;5027205;28;19971;-51
2023/09/21 14:31:51;;;;;;;;;;;;;;;;;;5026108;28;19909;-50
2023/09/21 14:34:17;;;;;;;;;;;;;;;;;;5027692;28;19915;-50
2023/09/21 14:36:43;;;;;;;;;;;;;;;;;;5027331;28;20413;-51
2023/09/21 14:39:09;;;;;;;;;;;;;;;;;;5026982;28;19975;-50
2023/09/21 14:41:35;;;;;;;;;;;;;;;;;;5027280;28;20442;-48
2023/09/21 14:44:01;;;;;;;;;;;;;;;;;;5026870;28;20004;-50
2023/09/21 14:46:27;;;;;;;;;;;;;;;;;;5027337;28;20399;-49
2023/09/21 14:48:53;;;;;;;;;;;;;;;;;;5026755;28;20019;-47
2023/09/21 14:51:19;;;;;;;;;;;;;;;;;;5034004;28;20255;-48
2023/09/21 14:53:45;;;;;;;;;;;;;;;;;;5046915;28;20173;-48
2023/09/21 14:56:10;;;;;;;;;;;;;;;;;;5046935;28;19916;-47
2023/09/21 14:58:37;;;;;;;;;;;;;;;;;;5046620;28;19913;-47
2023/09/21 15:01:04;;;;;;;;;;;;;;;;;;5046222;28;19962;-48
2023/09/21 15:03:30;;;;;;;;;;;;;;;;;;5045011;28;20200;-45
2023/09/21 15:05:56;;;;;;;;;;;;;;;;;;5031991;28;20383;-46
2023/09/21 15:08:22;;;;;;;;;;;;;;;;;;5027226;28;19935;-46
2023/09/21 15:10:53;;;;;;;;;;;;;;;;;;5030691;28;19913;-46
2023/09/21 15:13:20;;;;;;;;;;;;;;;;;;5027283;28;19956;-46
2023/09/21 15:15:46;;;;;;;;;;;;;;;;;;5034144;28;19913;-44
2023/09/21 15:18:12;;;;;;;;;;;;;;;;;;5025926;28;20012;-45
2023/09/21 15:20:38;;;;;;;;;;;;;;;;;;5027130;28;19931;-42
2023/09/21 15:23:04;;;;;;;;;;;;;;;;;;5026285;28;19928;-41
2023/09/21 15:25:30;;;;;;;;;;;;;;;;;;5027385;28;19913;-43
2023/09/21 15:27:56;;;;;;;;;;;;;;;;;;5026089;28;19905;-43
2023/09/21 15:30:22;;;;;;;;;;;;;;;;;;5037960;28;19979;-42
2023/09/21 15:32:47;;;;;;;;;;;;;;;;;;5046217;28;20269;-46
2023/09/21 15:35:14;;;;;;;;;;;;;;;;;;5044642;28;19943;-43
2023/09/21 15:37:40;;;;;;;;;;;;;;;;;;5044537;28;20280;-42
2023/09/21 15:40:06;;;;;;;;;;;;;;;;;;5045967;28;20197;-42
2023/09/21 15:42:31;;;;;;;;;;;;;;;;;;5047646;28;19932;-42
2023/09/21 15:44:57;;;;;;;;;;;;;;;;;;5046231;28;19913;-43
2023/09/21 15:47:23;;;;;;;;;;;;;;;;;;5045614;28;19979;-42
2023/09/21 15:49:50;;;;;;;;;;;;;;;;;;5046130;28;19908;-41
2023/09/21 15:52:16;;;;;;;;;;;;;;;;;;5044610;28;20345;-42
2023/09/21 15:54:42;;;;;;;;;;;;;;;;;;5046153;28;19909;-42
2023/09/21 15:57:10;;;;;;;;;;;;;;;;;;5046170;28;19904;-42
2023/09/21 15:59:36;;;;;;;;;;;;;;;;;;5045943;28;19917;-43
2023/09/21 16:02:02;;;;;;;;;;;;;;;;;;5046624;28;20011;-42
2023/09/21 16:04:28;;;;;;;;;;;;;;;;;;5046534;28;20017;-44
2023/09/21 16:06:54;;;;;;;;;;;;;;;;;;5046216;28;19908;-42
2023/09/21 16:09:20;;;;;;;;;;;;;;;;;;5045979;28;19913;-41
2023/09/21 16:11:46;;;;;;;;;;;;;;;;;;5044224;28;19913;-41
2023/09/21 16:14:12;;;;;;;;;;;;;;;;;;5044517;28;19909;-42
2023/09/21 16:16:39;;;;;;;;;;;;;;;;;;5044742;28;20371;-44
2023/09/21 16:19:05;;;;;;;;;;;;;;;;;;5045274;28;20299;-41
2023/09/21 16:21:33;;;;;;;;;;;;;;;;;;5046792;28;19915;-42
2023/09/21 16:23:59;;;;;;;;;;;;;;;;;;5046439;28;19908;-41
2023/09/21 16:26:26;;;;;;;;;;;;;;;;;;5045878;28;20299;-42
2023/09/21 16:28:51;;;;;;;;;;;;;;;;;;5044257;28;19909;-43
2023/09/21 16:31:18;;;;;;;;;;;;;;;;;;5044829;28;19920;-40
2023/09/21 16:33:44;;;;;;;;;;;;;;;;;;5045677;28;19964;-40
2023/09/21 16:36:10;;;;;;;;;;;;;;;;;;5045417;28;19945;-40
2023/09/21 16:38:36;;;;;;;;;;;;;;;;;;5044449;28;20419;-40
2023/09/21 16:41:02;;;;;;;;;;;;;;;;;;5040230;28;20000;-40
2023/09/21 16:43:28;;;;;;;;;;;;;;;;;;5040050;28;19916;-40
2023/09/21 16:45:53;;;;;;;;;;;;;;;;;;5049537;28;19948;-40
2023/09/21 16:48:19;;;;;;;;;;;;;;;;;;5048900;28;20367;-43
2023/09/21 16:50:45;;;;;;;;;;;;;;;;;;5049507;28;19913;-42
2023/09/21 16:53:11;;;;;;;;;;;;;;;;;;5049004;28;19962;-42
2023/09/21 16:55:37;;;;;;;;;;;;;;;;;;5049359;28;19916;-44
2023/09/21 16:58:03;;;;;;;;;;;;;;;;;;5049369;28;19958;-41
2023/09/21 17:00:29;;;;;;;;;;;;;;;;;;5049865;28;20379;-43
2023/09/21 17:02:55;;;;;;;;;;;;;;;;;;5049180;28;19909;-41
2023/09/21 17:05:22;;;;;;;;;;;;;;;;;;5048793;28;20011;-43
2023/09/21 17:07:48;;;;;;;;;;;;;;;;;;5048629;28;19913;-42
2023/09/21 17:10:14;;;;;;;;;;;;;;;;;;5046989;28;19920;-43
2023/09/21 17:12:40;;;;;;;;;;;;;;;;;;5048140;28;19931;-42
2023/09/21 17:15:06;;;;;;;;;;;;;;;;;;5042770;28;19920;-43
2023/09/21 17:17:32;;;;;;;;;;;;;;;;;;5049209;28;20369;-42
2023/09/21 17:19:58;;;;;;;;;;;;;;;;;;5037492;28;20020;-45
2023/09/21 17:22:24;;;;;;;;;;;;;;;;;;5049593;28;19939;-46
2023/09/21 17:24:50;;;;;;;;;;;;;;;;;;5046065;28;19966;-42
2023/09/21 17:27:16;;;;;;;;;;;;;;;;;;5048218;28;19917;-44
2023/09/21 17:29:42;;;;;;;;;;;;;;;;;;5047266;28;20326;-45
2023/09/21 17:32:08;;;;;;;;;;;;;;;;;;5047194;28;19913;-44
2023/09/21 17:34:34;;;;;;;;;;;;;;;;;;5046891;28;19917;-42
2023/09/21 17:37:00;;;;;;;;;;;;;;;;;;5048460;28;20452;-43
2023/09/21 17:39:26;;;;;;;;;;;;;;;;;;5046676;28;19952;-43
2023/09/21 17:41:52;;;;;;;;;;;;;;;;;;5049373;28;19952;-45
2023/09/21 17:44:17;;;;;;;;;;;;;;;;;;5046934;28;20449;-43
2023/09/21 17:46:43;;;;;;;;;;;;;;;;;;5050157;28;19908;-43
2023/09/21 17:49:11;;;;;;;;;;;;;;;;;;5046732;28;19921;-44
2023/09/21 17:51:37;;;;;;;;;;;;;;;;;;5048066;28;19913;-42
2023/09/21 17:54:03;;;;;;;;;;;;;;;;;;5049188;28;20007;-44
2023/09/21 17:56:29;;;;;;;;;;;;;;;;;;5049466;28;19916;-43
2023/09/21 17:58:55;;;;;;;;;;;;;;;;;;5043734;28;19929;-45
2023/09/21 18:01:21;;;;;;;;;;;;;;;;;;5049421;28;19916;-44
2023/09/21 18:03:47;;;;;;;;;;;;;;;;;;5048733;28;19962;-45
2023/09/21 18:06:14;;;;;;;;;;;;;;;;;;5046980;28;19912;-47
2023/09/21 18:08:39;;;;;;;;;;;;;;;;;;5057062;28;19944;-42
2023/09/21 18:11:05;;;;;;;;;;;;;;;;;;5048217;28;19959;-43
2023/09/21 18:13:31;;;;;;;;;;;;;;;;;;5059047;28;20367;-44
2023/09/21 18:15:57;;;;;;;;;;;;;;;;;;5040533;28;19995;-42
2023/09/21 18:18:23;;;;;;;;;;;;;;;;;;5049071;28;20264;-44
2023/09/21 18:20:49;;;;;;;;;;;;;;;;;;5049116;28;19916;-44
2023/09/21 18:23:15;;;;;;;;;;;;;;;;;;5047331;28;19923;-45
2023/09/21 18:25:41;;;;;;;;;;;;;;;;;;5048217;28;19909;-43
2023/09/21 18:28:08;;;;;;;;;;;;;;;;;;5046786;28;20326;-44
2023/09/21 18:30:34;;;;;;;;;;;;;;;;;;5045400;28;19943;-43
2023/09/21 18:33:00;;;;;;;;;;;;;;;;;;5043846;28;19917;-43
2023/09/21 18:35:26;;;;;;;;;;;;;;;;;;5046322;28;19917;-43
2023/09/21 18:37:51;;;;;;;;;;;;;;;;;;5046567;28;19909;-43
2023/09/21 18:40:17;;;;;;;;;;;;;;;;;;5042314;28;19959;-43
2023/09/21 18:42:43;;;;;;;;;;;;;;;;;;5044491;28;19919;-45
2023/09/21 18:45:10;;;;;;;;;;;;;;;;;;5045909;28;20054;-44
2023/09/21 18:47:36;;;;;;;;;;;;;;;;;;5042191;28;19962;-43
2023/09/21 18:50:03;;;;;;;;;;;;;;;;;;5042907;28;19920;-44
2023/09/21 18:52:29;;;;;;;;;;;;;;;;;;5045219;28;19987;-43
2023/09/21 18:54:55;;;;;;;;;;;;;;;;;;5042378;28;19916;-43
2023/09/21 18:57:20;;;;;;;;;;;;;;;;;;5045107;28;20474;-42
2023/09/21 18:59:47;;;;;;;;;;;;;;;;;;5041004;28;19921;-45
2023/09/21 19:02:14;;;;;;;;;;;;;;;;;;5042887;28;19913;-43
2023/09/21 19:04:40;;;;;;;;;;;;;;;;;;5047026;28;20302;-44
2023/09/21 19:07:06;;;;;;;;;;;;;;;;;;5042842;28;20008;-42
2023/09/21 19:09:32;;;;;;;;;;;;;;;;;;5042296;28;19920;-41
2023/09/21 19:11:58;;;;;;;;;;;;;;;;;;5043594;28;19959;-42
2023/09/21 19:14:24;;;;;;;;;;;;;;;;;;5043583;28;19958;-42
2023/09/21 19:16:53;;;;;;;;;;;;;;;;;;5041143;28;20309;-40
2023/09/21 19:19:20;;;;;;;;;;;;;;;;;;5043357;28;19986;-40
2023/09/21 19:21:46;;;;;;;;;;;;;;;;;;5043708;28;19913;-39
2023/09/21 19:24:12;;;;;;;;;;;;;;;;;;5042079;28;19921;-39
2023/09/21 19:26:38;;;;;;;;;;;;;;;;;;5043534;28;20559;-43
2023/09/21 19:29:04;;;;;;;;;;;;;;;;;;5044471;28;20000;-40
2023/09/21 19:31:30;;;;;;;;;;;;;;;;;;5043285;28;20000;-40
2023/09/21 19:33:55;;;;;;;;;;;;;;;;;;5042875;28;19947;-41
2023/09/21 19:36:21;;;;;;;;;;;;;;;;;;5045902;28;19939;-41
2023/09/21 19:38:48;;;;;;;;;;;;;;;;;;5052623;28;20008;-42
2023/09/21 19:41:14;;;;;;;;;;;;;;;;;;5038480;28;19966;-41
2023/09/21 19:43:40;;;;;;;;;;;;;;;;;;5045953;28;19917;-41
2023/09/21 19:46:06;;;;;;;;;;;;;;;;;;5045042;28;20371;-41
2023/09/21 19:48:32;;;;;;;;;;;;;;;;;;5040178;28;20023;-41
2023/09/21 19:50:58;;;;;;;;;;;;;;;;;;5043687;28;20329;-41
2023/09/21 19:53:24;;;;;;;;;;;;;;;;;;5053011;28;20011;-41
2023/09/21 19:55:50;;;;;;;;;;;;;;;;;;5066340;28;19915;-41
2023/09/21 19:58:15;;;;;;;;;;;;;;;;;;5050414;28;20019;-41
2023/09/21 20:00:43;;;;;;;;;;;;;;;;;;5040658;28;19917;-43
2023/09/21 20:03:15;;;;;;;;;;;;;;;;;;5040472;28;19956;-42
2023/09/21 20:05:41;;;;;;;;;;;;;;;;;;5041469;28;19913;-41
2023/09/21 20:08:07;;;;;;;;;;;;;;;;;;5042796;28;19966;-41
2023/09/21 20:10:33;;;;;;;;;;;;;;;;;;5041469;28;19920;-41
2023/09/21 20:12:59;;;;;;;;;;;;;;;;;;5044620;28;19916;-41
2023/09/21 20:15:25;;;;;;;;;;;;;;;;;;5044522;28;19923;-41
2023/09/21 20:17:51;;;;;;;;;;;;;;;;;;5046094;28;19913;-41
2023/09/21 20:20:17;;;;;;;;;;;;;;;;;;5046600;28;19917;-42
2023/09/21 20:22:44;;;;;;;;;;;;;;;;;;5046319;28;19913;-42
2023/09/21 20:25:09;;;;;;;;;;;;;;;;;;5047845;28;20166;-41
2023/09/21 20:27:35;;;;;;;;;;;;;;;;;;5047312;28;19921;-41
2023/09/21 20:30:01;;;;;;;;;;;;;;;;;;5046549;28;19959;-41
2023/09/21 20:32:27;;;;;;;;;;;;;;;;;;5046233;28;20007;-41
2023/09/21 20:34:53;;;;;;;;;;;;;;;;;;5047875;28;19919;-42
2023/09/21 20:37:20;;;;;;;;;;;;;;;;;;5044029;28;20357;-41
2023/09/21 20:39:47;;;;;;;;;;;;;;;;;;5045936;28;19987;-43
2023/09/21 20:42:13;;;;;;;;;;;;;;;;;;5046199;28;20011;-42
2023/09/21 20:44:40;;;;;;;;;;;;;;;;;;5047754;28;20007;-43
2023/09/21 20:47:06;;;;;;;;;;;;;;;;;;5048556;28;20298;-41
2023/09/21 20:49:32;;;;;;;;;;;;;;;;;;5048152;28;19988;-41
2023/09/21 20:51:58;;;;;;;;;;;;;;;;;;5045303;28;19913;-43
2023/09/21 20:54:25;;;;;;;;;;;;;;;;;;5043107;28;19920;-43
2023/09/21 20:56:52;;;;;;;;;;;;;;;;;;5043448;28;19917;-43
2023/09/21 20:59:18;;;;;;;;;;;;;;;;;;5046645;28;19970;-41
2023/09/21 21:01:45;;;;;;;;;;;;;;;;;;5047135;28;19913;-41
2023/09/21 21:04:10;;;;;;;;;;;;;;;;;;5048968;28;20442;-42
2023/09/21 21:06:36;;;;;;;;;;;;;;;;;;5045972;28;19913;-41
2023/09/21 21:09:02;;;;;;;;;;;;;;;;;;5043622;28;19923;-41
2023/09/21 21:11:28;;;;;;;;;;;;;;;;;;5047105;28;19913;-42
2023/09/21 21:13:54;;;;;;;;;;;;;;;;;;5058411;28;19996;-43
2023/09/21 21:16:20;;;;;;;;;;;;;;;;;;5046563;28;19944;-41
2023/09/21 21:18:46;;;;;;;;;;;;;;;;;;5045510;28;19924;-40
2023/09/21 21:21:12;;;;;;;;;;;;;;;;;;5032130;28;19974;-40
2023/09/21 21:23:37;;;;;;;;;;;;;;;;;;5029170;28;19917;-40
2023/09/21 21:26:03;;;;;;;;;;;;;;;;;;5028168;28;20037;-41
2023/09/21 21:28:30;;;;;;;;;;;;;;;;;;5028349;28;20301;-42
2023/09/21 21:30:56;;;;;;;;;;;;;;;;;;5044104;28;19937;-41
2023/09/21 21:33:22;;;;;;;;;;;;;;;;;;5028134;28;20356;-40
2023/09/21 21:35:48;;;;;;;;;;;;;;;;;;5028897;28;19909;-40
2023/09/21 21:38:14;;;;;;;;;;;;;;;;;;5034120;28;19916;-40
2023/09/21 21:40:40;;;;;;;;;;;;;;;;;;5047771;28;19974;-40
2023/09/21 21:43:07;;;;;;;;;;;;;;;;;;5048329;28;19908;-40
2023/09/21 21:45:33;;;;;;;;;;;;;;;;;;5048444;28;20151;-40
2023/09/21 21:47:59;;;;;;;;;;;;;;;;;;5048241;28;19920;-41
2023/09/21 21:50:25;;;;;;;;;;;;;;;;;;5048131;28;19912;-40
2023/09/21 21:52:51;;;;;;;;;;;;;;;;;;5048302;28;19959;-40
2023/09/21 21:55:17;;;;;;;;;;;;;;;;;;5047735;28;19921;-40